Terminal Aerodrome Forecast
Issued by NWS

Home | Current Version | Previous Version | Text Only | Print | Product List | Glossary On
Versions: 1 2 3 4 5 6 7 8 9 10 11 12 13 14
000
FTUS45 KPIH 291720
TAFSUN
TAF
KSUN 291720Z 2918/3018 28006KT P6SM VCSH SCT060 BKN090
     FM291900 16007KT P6SM VCSH SCT060 BKN090
     FM300200 VRB05KT 6SM -SHRA SCT008 OVC015
     FM300600 VRB05KT 4SM -SHRA BR BKN006 OVC010=

USA.gov is the U.S. government's official web portal to all federal, state and local government web resources and services.